ADDS METAR Data INFO
IDs: Format: Raw Decoded Include TAF

Data at: 0058 UTC 24 Aug 2017

KCON 240051Z AUTO 21003KT 10SM CLR 19/13 A2982 RMK AO2 SLP095 T01940128
KCON 232351Z AUTO 27005KT 10SM CLR 21/12 A2980 RMK AO2 SLP089 T02110122 10267 20211 53008
KCON 232251Z AUTO 27004KT 10SM CLR 23/11 A2978 RMK AO2 SLP084 T02330111
KCON 232151Z AUTO 26010KT 10SM CLR 25/11 A2978 RMK AO2 SLP083 T02500111
KCON 232051Z AUTO 30010KT 10SM BKN065 26/11 A2978 RMK AO2 SLP081 T02560111 53000
KCON 231951Z AUTO 28008G15KT 10SM FEW060 26/12 A2977 RMK AO2 SLP079 T02610117
KCON 231851Z AUTO 26010G19KT 10SM CLR 26/12 A2977 RMK AO2 SLP081 T02610117
KCON 231751Z AUTO 30008G18KT 270V340 10SM CLR 26/12 A2977 RMK AO2 SLP081 T02610117 10261 20217 53007
KCON 231651Z AUTO 30013G19KT 10SM CLR 25/12 A2977 RMK AO2 SLP079 T02500117
KCON 231551Z AUTO 29012KT 10SM CLR 25/12 A2976 RMK AO2 SLP075 T02500117
KCON 231451Z AUTO 32011KT 10SM FEW110 24/13 A2975 RMK AO2 SLP073 T02440128 51014
KCON 231351Z AUTO 26012G21KT 220V290 10SM CLR 24/14 A2975 RMK AO2 SLP071 T02390144
KCON 231251Z AUTO 25006KT 10SM CLR 23/18 A2972 RMK AO2 SLP064 T02280178
KCON 231151Z AUTO VRB04KT 10SM BKN075 23/20 A2971 RMK AO2 SLP060 60000 70048 T02280200 10228 20194 53015
KCON 231051Z AUTO 26003KT 10SM FEW075 20/20 A2969 RMK AO2 SLP054 T02000200 $
KCON 231000Z AUTO 25003KT 10SM SCT002 20/19 A2968 RMK AO2 T02000194 $
KCON 230951Z AUTO 27003KT 3SM BR BKN002 20/19 A2968 RMK AO2 SLP048 T02000194 $
KCON 230947Z AUTO 28003KT 1SM BR VV002 20/19 A2968 RMK AO2 $
KCON 230931Z AUTO 00000KT 1/4SM FG VV002 21/20 A2967 RMK AO2 T02060200
KCON 230921Z AUTO 13003KT 3/4SM BR OVC003 20/20 A2967 RMK AO2 T02000200
KCON 230919Z AUTO 11003KT 1 1/2SM BR OVC003 20/20 A2967 RMK AO2 T02000200
KCON 230914Z AUTO 11003KT 3SM BR BKN003 21/20 A2966 RMK AO2 T02060200
KCON 230911Z AUTO 00000KT 1 1/2SM BR BKN003 21/20 A2966 RMK AO2 T02060200
KCON 230900Z AUTO 00000KT 3/4SM BR BKN003 21/20 A2967 RMK AO2 T02060200
KCON 230857Z AUTO 00000KT 1 3/4SM BR SCT003 21/20 A2967 RMK AO2 T02060200
KCON 230851Z AUTO 00000KT 3SM BR FEW003 21/20 A2967 RMK AO2 SLP043 60000 T02060200 56008
KCON 230751Z AUTO 19005KT 6SM BR FEW002 BKN100 21/21 A2967 RMK AO2 SLP044 T02110206
KCON 230721Z AUTO 17006KT 6SM BR FEW003 SCT060 BKN100 21/21 A2967 RMK AO2 T02110206
KCON 230651Z AUTO 18006KT 9SM BKN090 OVC110 21/21 A2967 RMK AO2 RAB0555E38 SLP046 P0000 T02110206
KCON 230551Z AUTO 15005KT 10SM FEW044 BKN080 OVC095 21/20 A2969 RMK AO2 RAE26 SLP051 P0003 60048 T02110200 10272 20211 50012
KCON 230451Z AUTO 17006KT 9SM -RA BKN090 OVC110 21/21 A2969 RMK AO2 LTG DSNT E-S SLP052 P0007 T02110206 403280150
KCON 230358Z AUTO 20007KT 5SM RA BR FEW070 BKN090 OVC110 22/21 A2969 RMK AO2 LTG DSNT ALQDS P0001 T02220206
KCON 230351Z AUTO 21007G17KT 4SM VCTS RA BR SCT065 BKN080 OVC110 22/21 A2970 RMK AO2 LTG DSNT ALQDS TSB12E27 SLP053 P0038 T02220206
KCON 230335Z AUTO 22008G18KT 4SM VCTS RA BR SCT030 SCT070 OVC085 22/21 A2969 RMK AO2 LTG DSNT ALQDS TSB12E27 P0034 T02220211
KCON 230328Z AUTO 25009G18KT 2 1/2SM VCTS RA BR FEW021 BKN034 OVC080 23/21 A2969 RMK AO2 LTG DSNT ALQDS TSB12E27 P0032 T02280211
KCON 230322Z AUTO 26010G16KT 3SM TSRA BR FEW021 BKN035 OVC100 23/21 A2969 RMK AO2 LTG DSNT N AND NE AND SW TSB12 P0029 T02280211
KCON 230318Z AUTO 23013KT 1 1/2SM TSRA BR BKN025 BKN080 OVC100 23/22 A2970 RMK AO2 LTG DSNT N AND NE AND SW TSB12 P0028 T02330217
KCON 230311Z AUTO 22008G19KT 1SM VCTS +RA BR BKN022 BKN049 OVC120 24/22 A2969 RMK AO2 LTG DSNT N AND NE AND SW P0017 T02390222
KCON 230307Z AUTO 26012G19KT 1 1/2SM VCTS +RA BR SCT024 BKN060 BKN080 24/23 A2969 RMK AO2 LTG DSNT N AND NE AND SW PRESRR P0004 T02440228
KCON 230304Z AUTO 29012KT 2 1/2SM +RA BR FEW026 SCT065 BKN080 25/23 A2969 RMK AO2 LTG DSNT N AND NE AND SW PRESRR P0002 T02500228
KCON 230251Z AUTO 18008KT 9SM VCTS -RA SCT070 BKN090 BKN120 26/22 A2965 RMK AO2 LTG DSNT ALQDS RAB50 SLP039 P0000 60000 T02610222 58015
KCON 230151Z AUTO 18007KT 10SM CLR 27/22 A2967 RMK AO2 LTG DSNT NW SLP044 T02670217
KCON 230051Z AUTO 17011KT 10SM CLR 27/21 A2969 RMK AO2 SLP053 T02670211
KCON 222351Z AUTO 17008KT 10SM CLR 27/21 A2970 RMK AO2 SLP056 T02720206 10328 20272 56018
KCON 222251Z AUTO 18008KT 10SM CLR 28/21 A2971 RMK AO2 SLP059 T02830206
KCON 222151Z AUTO 18007KT 10SM CLR 30/21 A2974 RMK AO2 SLP068 T03000211
KCON 222051Z AUTO 21012KT 10SM CLR 32/21 A2975 RMK AO2 SLP074 T03170206 56034
KCON 221951Z AUTO 18013KT 10SM BKN049 32/21 A2976 RMK AO2 SLP077 T03170206
KCON 221851Z AUTO VRB05KT 10SM SCT050 SCT060 32/21 A2981 RMK AO2 SLP093 T03170211
KCON 221751Z AUTO 19011KT 10SM SCT060 SCT075 31/21 A2986 RMK AO2 SLP108 T03110211 10317 20189 56028
KCON 221651Z AUTO 20008KT 10SM SCT033 31/21 A2988 RMK AO2 SLP116 T03060211
KCON 221551Z AUTO 15008KT 10SM SCT031 28/22 A2991 RMK AO2 SLP127 T02830217
KCON 221451Z AUTO 13004KT 9SM CLR 27/21 A2994 RMK AO2 SLP136 T02720211 58020
KCON 221351Z AUTO VRB03KT 9SM CLR 25/20 A2996 RMK AO2 SLP145 T02500200 $